Time;durP1;ratioP1;P1;durP2;ratioP2;P2;SDS_P1;SDS_P2;PMS_P1;PMS_P2;Temp;Humidity;BMP_temperature;BMP_pressure;BME280_temperature;BME280_humidity;BME280_pressure;Samples;Min_cycle;Max_cycle;Signal;HPM_P1;HPM_P2
2022/04/10 00:01:42;;;;;;;4.68;1.95;;;7.30;50.00;;;;;;5059847;28;20044;-45
2022/04/10 00:04:11;;;;;;;5.20;2.20;;;7.30;50.00;;;;;;5063454;28;20499;-43
2022/04/10 00:06:38;;;;;;;6.43;2.70;;;7.30;50.00;;;;;;5061816;28;20067;-42
2022/04/10 00:09:06;;;;;;;5.28;2.20;;;7.20;49.90;;;;;;5062204;28;20423;-42
2022/04/10 00:11:33;;;;;;;8.05;1.98;;;7.20;49.90;;;;;;5057883;28;20048;-43
2022/04/10 00:14:01;;;;;;;7.55;2.40;;;7.20;49.90;;;;;;5061962;28;20049;-43
2022/04/10 00:16:28;;;;;;;6.53;2.45;;;7.20;49.90;;;;;;5057008;28;20048;-43
2022/04/10 00:19:01;;;;;;;9.32;2.35;;;7.20;49.80;;;;;;5059817;28;20049;-43
2022/04/10 00:21:30;;;;;;;7.07;2.55;;;7.20;49.90;;;;;;5061341;28;20053;-42
2022/04/10 00:23:58;;;;;;;5.55;2.35;;;7.20;49.80;;;;;;5061579;28;20053;-43
2022/04/10 00:26:26;;;;;;;6.13;2.35;;;7.20;49.80;;;;;;5060032;28;20048;-43
2022/04/10 00:35:38;;;;;;;6.85;2.15;;;7.10;49.80;;;;;;5069261;28;20039;-44
2022/04/10 00:38:07;;;;;;;8.00;2.80;;;7.00;49.70;;;;;;5062461;28;20059;-42
2022/04/10 00:40:35;;;;;;;9.18;2.70;;;7.00;49.80;;;;;;5059395;28;20531;-42
2022/04/10 00:43:03;;;;;;;6.90;2.35;;;7.00;49.80;;;;;;5060114;28;20051;-43
2022/04/10 00:45:31;;;;;;;4.88;2.25;;;7.00;49.80;;;;;;5059383;28;20492;-43
2022/04/10 00:47:58;;;;;;;8.10;2.50;;;6.90;49.80;;;;;;5059414;28;20075;-43
2022/04/10 00:50:26;;;;;;;7.50;2.10;;;7.00;50.40;;;;;;5060435;28;20059;-43
2022/04/10 00:52:55;;;;;;;5.88;2.47;;;6.90;49.90;;;;;;5060689;28;20056;-48
2022/04/10 00:55:23;;;;;;;5.18;2.20;;;6.90;50.00;;;;;;5057709;28;20067;-43
2022/04/10 00:57:51;;;;;;;8.00;2.10;;;6.90;50.00;;;;;;5059469;28;20051;-45
2022/04/10 01:00:19;;;;;;;5.32;2.33;;;6.90;50.10;;;;;;5058948;28;20420;-42
2022/04/10 01:02:46;;;;;;;7.22;2.55;;;6.80;50.10;;;;;;5059701;28;20048;-42
2022/04/10 01:05:14;;;;;;;7.43;2.30;;;6.80;50.10;;;;;;5060331;28;20049;-43
2022/04/10 01:07:41;;;;;;;12.75;2.72;;;6.80;50.20;;;;;;5058258;28;20056;-43
2022/04/10 01:10:09;;;;;;;6.90;2.47;;;6.80;50.20;;;;;;5059719;28;20052;-43
2022/04/10 01:12:38;;;;;;;7.05;2.63;;;6.80;50.20;;;;;;5060094;28;20057;-45
2022/04/10 01:15:06;;;;;;;6.82;2.72;;;6.70;50.20;;;;;;5061394;28;20055;-43
2022/04/10 01:17:35;;;;;;;6.28;2.40;;;6.70;50.30;;;;;;5061977;28;20052;-42
2022/04/10 01:20:03;;;;;;;12.52;2.50;;;6.70;50.30;;;;;;5056446;28;20063;-43
2022/04/10 01:22:35;;;;;;;8.55;2.67;;;6.70;50.30;;;;;;5060557;28;20061;-42
2022/04/10 01:25:05;;;;;;;6.75;2.30;;;6.70;50.40;;;;;;5061223;28;20048;-44
2022/04/10 01:27:37;;;;;;;6.65;2.58;;;6.70;50.90;;;;;;5059301;28;20059;-42
2022/04/10 01:30:06;;;;;;;11.55;2.88;;;6.70;50.50;;;;;;5060863;28;20048;-43
2022/04/10 01:32:33;;;;;;;7.50;2.72;;;6.60;50.50;;;;;;5060776;28;20044;-42
2022/04/10 01:35:03;;;;;;;10.70;3.03;;;6.60;50.50;;;;;;5059889;28;20059;-43
2022/04/10 01:37:35;;;;;;;8.52;2.70;;;6.60;50.60;;;;;;5058761;28;20049;-43
2022/04/10 01:40:03;;;;;;;9.57;2.70;;;6.60;50.60;;;;;;5057734;28;20052;-43
2022/04/10 01:42:30;;;;;;;7.03;2.88;;;6.60;50.60;;;;;;5060639;28;20049;-43
2022/04/10 01:44:58;;;;;;;9.73;3.13;;;6.50;50.60;;;;;;5060929;28;20059;-43
2022/04/10 01:47:26;;;;;;;10.63;3.05;;;6.50;51.20;;;;;;5059263;28;20052;-43
2022/04/10 01:49:53;;;;;;;12.57;3.53;;;6.50;50.70;;;;;;5060922;28;20071;-43
2022/04/10 01:52:20;;;;;;;5.10;2.60;;;6.50;50.70;;;;;;5057552;28;20071;-42
2022/04/10 01:54:49;;;;;;;13.30;3.13;;;6.50;50.80;;;;;;5061402;28;20052;-43
2022/04/10 01:57:17;;;;;;;9.73;3.15;;;6.50;50.80;;;;;;5061085;28;20060;-43
2022/04/10 01:59:44;;;;;;;9.35;2.70;;;6.40;50.80;;;;;;5060971;28;20055;-43
2022/04/10 02:02:12;;;;;;;8.95;2.40;;;6.50;50.90;;;;;;5059585;28;20075;-46
2022/04/10 02:04:39;;;;;;;8.30;3.00;;;6.40;50.90;;;;;;5062598;28;20061;-43
2022/04/10 02:07:07;;;;;;;7.40;2.58;;;6.50;51.00;;;;;;5060849;28;20421;-43
2022/04/10 02:09:34;;;;;;;6.95;2.45;;;6.40;51.00;;;;;;5063571;28;20053;-47
2022/04/10 02:12:03;;;;;;;13.18;2.83;;;6.40;50.90;;;;;;5062240;28;20748;-42
2022/04/10 02:14:31;;;;;;;8.68;2.90;;;6.40;51.00;;;;;;5065426;28;20626;-42
2022/04/10 02:17:00;;;;;;;15.18;2.80;;;6.40;51.00;;;;;;5064657;28;20063;-42
2022/04/10 02:19:27;;;;;;;7.85;2.40;;;6.40;51.00;;;;;;5063556;28;20516;-43
2022/04/10 02:21:57;;;;;;;7.63;2.08;;;6.40;51.00;;;;;;5062784;28;20432;-43
2022/04/10 02:24:24;;;;;;;11.45;3.42;;;6.40;51.00;;;;;;5065215;28;20064;-44
2022/04/10 02:26:52;;;;;;;7.53;2.60;;;6.40;51.00;;;;;;5064247;28;20059;-43
2022/04/10 02:29:21;;;;;;;9.77;3.10;;;6.30;51.00;;;;;;5063759;28;20049;-43
2022/04/10 02:31:49;;;;;;;32.35;11.15;;;6.30;51.00;;;;;;5061504;28;20056;-43
2022/04/10 02:34:16;;;;;;;18.55;5.43;;;6.30;51.00;;;;;;5065254;28;20048;-43
2022/04/10 02:36:44;;;;;;;9.52;3.75;;;6.30;51.00;;;;;;5064330;28;20064;-43
2022/04/10 02:39:11;;;;;;;9.05;2.67;;;6.30;51.00;;;;;;5066273;28;20424;-42
2022/04/10 02:41:39;;;;;;;8.65;2.83;;;6.30;51.10;;;;;;5082726;28;20051;-42
2022/04/10 02:44:07;;;;;;;6.53;2.53;;;6.30;51.10;;;;;;5083233;28;20044;-45
2022/04/10 02:46:36;;;;;;;8.40;2.75;;;6.30;51.10;;;;;;5083565;28;20055;-43
2022/04/10 02:49:03;;;;;;;11.57;3.20;;;6.30;51.20;;;;;;5081825;28;20048;-43
2022/04/10 02:51:30;;;;;;;11.50;2.90;;;6.30;51.10;;;;;;5082935;28;22490;-45
2022/04/10 02:53:58;;;;;;;11.57;3.28;;;6.30;51.20;;;;;;5084749;28;20048;-44
2022/04/10 02:56:25;;;;;;;12.32;3.22;;;6.30;51.20;;;;;;5083468;28;20063;-44
2022/04/10 02:58:53;;;;;;;9.45;2.78;;;6.30;51.20;;;;;;5084392;28;20052;-43
2022/04/10 03:01:20;;;;;;;7.75;2.35;;;6.30;51.20;;;;;;5080719;28;20048;-43
2022/04/10 03:03:49;;;;;;;7.68;2.53;;;6.30;51.20;;;;;;5083740;28;20059;-43
2022/04/10 03:06:17;;;;;;;12.40;2.97;;;6.30;51.20;;;;;;5082593;28;20404;-44
2022/04/10 03:08:44;;;;;;;7.15;2.58;;;6.30;51.60;;;;;;5083901;28;20633;-44
2022/04/10 03:11:12;;;;;;;8.02;2.40;;;6.30;51.10;;;;;;5081028;28;20048;-46
2022/04/10 03:13:39;;;;;;;10.25;2.70;;;6.30;51.20;;;;;;5084274;28;20059;-43
2022/04/10 03:16:07;;;;;;;20.98;7.97;;;6.30;51.20;;;;;;5082455;28;20048;-43
2022/04/10 03:18:34;;;;;;;11.35;4.07;;;6.30;51.20;;;;;;5082739;28;20056;-42
2022/04/10 03:21:03;;;;;;;12.68;3.13;;;6.40;51.20;;;;;;5083760;28;20055;-42
2022/04/10 03:23:30;;;;;;;10.23;3.03;;;6.40;51.20;;;;;;5080246;28;20522;-43
2022/04/10 03:25:58;;;;;;;7.43;2.65;;;6.30;51.20;;;;;;5081093;28;20526;-43
2022/04/10 03:28:25;;;;;;;8.30;2.55;;;6.30;51.20;;;;;;5083646;28;20052;-43
2022/04/10 03:30:53;;;;;;;11.23;2.72;;;6.40;51.20;;;;;;5081486;28;20053;-43
2022/04/10 03:33:20;;;;;;;8.82;2.63;;;6.40;51.20;;;;;;5080877;28;20055;-43
2022/04/10 03:35:48;;;;;;;10.40;2.90;;;6.40;51.20;;;;;;5083643;28;20056;-43
2022/04/10 03:38:17;;;;;;;4.07;2.00;;;6.40;51.20;;;;;;5082797;28;20048;-43
2022/04/10 03:40:44;;;;;;;6.28;2.17;;;6.40;51.10;;;;;;5058990;28;20056;-43
2022/04/10 03:43:12;;;;;;;5.22;2.38;;;6.40;51.10;;;;;;5060223;28;20052;-45
2022/04/10 03:45:40;;;;;;;10.52;3.03;;;6.50;51.10;;;;;;5064189;28;20512;-43
2022/04/10 03:48:07;;;;;;;10.80;2.72;;;6.50;51.00;;;;;;5063941;28;20064;-44
2022/04/10 03:50:35;;;;;;;9.85;2.50;;;6.50;51.00;;;;;;5061677;28;20057;-43
2022/04/10 03:53:04;;;;;;;10.15;2.55;;;6.50;51.00;;;;;;5061675;28;20056;-43
2022/04/10 03:55:33;;;;;;;12.00;3.10;;;6.50;51.00;;;;;;5063625;28;20053;-43
2022/04/10 03:58:00;;;;;;;9.88;3.70;;;6.50;51.00;;;;;;5062560;28;20056;-42
2022/04/10 04:00:28;;;;;;;7.63;3.28;;;6.60;51.00;;;;;;5061181;28;20064;-43
2022/04/10 04:02:55;;;;;;;11.90;3.20;;;6.60;51.00;;;;;;5060328;28;20055;-43
2022/04/10 04:05:23;;;;;;;8.05;2.65;;;6.60;51.00;;;;;;5062033;28;20063;-43
2022/04/10 04:07:50;;;;;;;7.68;2.45;;;6.60;50.90;;;;;;5063258;28;20052;-45
2022/04/10 04:10:18;;;;;;;10.52;3.00;;;6.60;50.90;;;;;;5062138;28;20078;-48
2022/04/10 04:12:47;;;;;;;9.20;2.30;;;6.70;51.00;;;;;;5060915;28;20162;-43
2022/04/10 04:15:14;;;;;;;6.68;2.33;;;6.70;50.90;;;;;;5061074;28;20060;-43
2022/04/10 04:17:42;;;;;;;7.00;1.95;;;6.70;50.90;;;;;;5053545;28;20059;-44
2022/04/10 04:20:10;;;;;;;10.48;2.65;;;6.80;51.00;;;;;;5061190;28;20048;-47
2022/04/10 04:22:38;;;;;;;5.95;2.00;;;6.80;50.90;;;;;;5062490;28;20504;-42
2022/04/10 04:25:07;;;;;;;8.57;2.72;;;6.80;50.90;;;;;;5061125;28;20049;-45
2022/04/10 04:27:34;;;;;;;7.15;2.63;;;6.80;50.80;;;;;;5061606;28;20426;-44
2022/04/10 04:30:04;;;;;;;8.13;2.08;;;6.90;50.80;;;;;;5061107;28;20424;-43
2022/04/10 04:32:31;;;;;;;6.57;2.40;;;6.90;50.70;;;;;;5060164;28;20420;-43
2022/04/10 04:34:59;;;;;;;6.82;2.15;;;7.00;50.70;;;;;;5062551;28;20056;-43
2022/04/10 04:37:26;;;;;;;11.63;2.58;;;7.00;50.60;;;;;;5060982;28;20071;-43
2022/04/10 04:39:53;;;;;;;9.88;3.28;;;7.00;50.60;;;;;;5058711;28;20056;-43
2022/04/10 04:42:21;;;;;;;10.48;3.60;;;7.00;50.50;;;;;;5059761;28;20404;-42
2022/04/10 04:44:48;;;;;;;10.10;2.65;;;7.00;50.40;;;;;;5062091;28;20063;-43
2022/04/10 04:47:17;;;;;;;9.95;2.83;;;7.10;50.40;;;;;;5060402;28;20048;-43
2022/04/10 04:49:45;;;;;;;11.25;2.58;;;7.10;50.40;;;;;;5063235;28;20063;-43
2022/04/10 04:52:12;;;;;;;11.60;3.05;;;7.10;50.40;;;;;;5060000;28;20048;-43
2022/04/10 04:54:40;;;;;;;8.25;2.53;;;7.10;50.30;;;;;;5060354;28;20049;-43
2022/04/10 04:57:07;;;;;;;9.30;2.55;;;7.10;50.30;;;;;;5061041;28;20671;-43
2022/04/10 04:59:35;;;;;;;7.35;1.85;;;7.10;50.30;;;;;;5059065;28;20426;-43
2022/04/10 05:02:02;;;;;;;11.30;2.97;;;7.20;50.30;;;;;;5059875;28;20055;-43
2022/04/10 05:04:31;;;;;;;7.07;2.53;;;7.20;50.30;;;;;;5061999;28;20055;-43
2022/04/10 05:06:59;;;;;;;9.20;2.75;;;7.20;50.20;;;;;;5059041;28;20049;-43
2022/04/10 05:09:26;;;;;;;6.18;2.45;;;7.20;50.20;;;;;;5061567;28;20059;-43
2022/04/10 05:11:54;;;;;;;9.43;2.50;;;7.20;50.20;;;;;;5056892;28;20048;-43
2022/04/10 05:14:21;;;;;;;6.85;2.28;;;7.30;50.20;;;;;;5061175;28;20055;-46
2022/04/10 05:16:49;;;;;;;6.05;2.30;;;7.20;50.10;;;;;;5061271;28;20507;-44
2022/04/10 05:19:16;;;;;;;7.53;2.75;;;7.30;50.10;;;;;;5059590;28;20051;-43
2022/04/10 05:21:45;;;;;;;8.40;2.72;;;7.30;50.10;;;;;;5060374;28;20051;-43
2022/04/10 05:24:13;;;;;;;9.70;3.08;;;7.30;50.10;;;;;;5057075;28;20045;-45
2022/04/10 05:26:42;;;;;;;9.32;2.28;;;7.30;50.10;;;;;;5060238;28;20052;-44
2022/04/10 05:29:09;;;;;;;8.35;2.22;;;7.30;50.00;;;;;;5057333;28;20524;-43
2022/04/10 05:31:37;;;;;;;8.10;2.30;;;7.30;50.10;;;;;;5060246;28;20052;-43
2022/04/10 05:34:04;;;;;;;7.15;2.63;;;7.30;50.10;;;;;;5060129;28;20079;-44
2022/04/10 05:36:32;;;;;;;6.15;2.10;;;7.30;50.20;;;;;;5058643;28;20071;-43
2022/04/10 05:39:00;;;;;;;10.98;2.38;;;7.30;50.20;;;;;;5059838;28;20063;-48
2022/04/10 05:41:28;;;;;;;6.82;2.28;;;7.40;50.20;;;;;;5060170;28;21475;-43
2022/04/10 05:43:55;;;;;;;6.90;2.08;;;7.40;50.20;;;;;;5062626;28;20049;-43
2022/04/10 05:46:25;;;;;;;8.18;2.78;;;7.40;50.20;;;;;;5055400;28;22926;-43
2022/04/10 05:48:53;;;;;;;8.70;2.65;;;7.40;50.20;;;;;;5058295;28;20063;-44
2022/04/10 05:51:20;;;;;;;7.80;2.30;;;7.50;50.30;;;;;;5058718;28;20416;-43
2022/04/10 05:53:48;;;;;;;6.20;2.20;;;7.50;50.30;;;;;;5061701;28;20052;-48
2022/04/10 05:56:17;;;;;;;6.93;2.50;;;7.50;50.30;;;;;;5058916;28;20432;-43
2022/04/10 05:58:44;;;;;;;8.80;2.55;;;7.60;50.40;;;;;;5057652;28;20083;-44
2022/04/10 06:01:12;;;;;;;4.63;2.30;;;7.60;50.40;;;;;;5055864;28;20059;-45
2022/04/10 06:03:39;;;;;;;8.85;2.25;;;7.70;50.50;;;;;;5061285;28;20052;-44
2022/04/10 06:06:07;;;;;;;7.95;2.30;;;7.70;50.40;;;;;;5057788;28;20059;-43
2022/04/10 06:08:34;;;;;;;5.07;2.35;;;7.80;50.30;;;;;;5057124;28;20412;-44
2022/04/10 06:11:02;;;;;;;53.03;17.02;;;7.80;50.30;;;;;;5061387;28;20056;-43
2022/04/10 06:13:31;;;;;;;24.98;9.25;;;7.90;50.20;;;;;;5059104;28;20389;-43
2022/04/10 06:15:58;;;;;;;60.95;29.45;;;8.00;50.10;;;;;;5059262;28;20397;-45
2022/04/10 06:18:26;;;;;;;22.30;9.85;;;8.00;50.00;;;;;;5058348;28;20075;-43
2022/04/10 06:20:53;;;;;;;14.32;5.53;;;8.00;50.00;;;;;;5057616;28;20063;-43
2022/04/10 06:23:23;;;;;;;11.65;4.88;;;8.10;49.90;;;;;;5057362;28;20048;-45
2022/04/10 06:25:50;;;;;;;12.00;4.97;;;8.10;49.90;;;;;;5060838;28;20057;-43
2022/04/10 06:28:18;;;;;;;19.33;5.82;;;8.10;49.90;;;;;;5058774;28;20051;-43
2022/04/10 06:30:47;;;;;;;12.82;4.78;;;8.20;50.00;;;;;;5061763;28;20052;-43
2022/04/10 06:33:15;;;;;;;11.70;4.32;;;8.20;50.00;;;;;;5059316;28;20048;-46
2022/04/10 06:35:42;;;;;;;8.82;2.90;;;8.30;50.00;;;;;;5058849;28;20408;-43
2022/04/10 06:38:10;;;;;;;8.20;3.08;;;8.30;49.80;;;;;;5060562;28;20071;-43
2022/04/10 06:40:38;;;;;;;11.73;3.83;;;8.30;49.80;;;;;;5076219;28;20066;-43
2022/04/10 06:43:08;;;;;;;8.60;3.35;;;8.40;49.90;;;;;;5079297;28;20051;-43
2022/04/10 06:45:35;;;;;;;11.50;4.20;;;8.40;49.80;;;;;;5077878;28;20055;-43
2022/04/10 06:48:06;;;;;;;5.82;3.03;;;8.50;49.80;;;;;;5069276;28;20059;-43
2022/04/10 06:50:33;;;;;;;10.10;3.55;;;8.60;49.80;;;;;;5076164;28;20051;-44
2022/04/10 06:53:01;;;;;;;8.40;3.25;;;8.60;49.70;;;;;;5079460;28;20052;-44
2022/04/10 06:55:30;;;;;;;8.15;3.53;;;8.70;49.70;;;;;;5083725;28;20048;-42
2022/04/10 06:57:57;;;;;;;8.13;2.85;;;8.70;49.50;;;;;;5083379;28;20060;-43
2022/04/10 07:00:25;;;;;;;12.60;3.50;;;8.70;49.40;;;;;;5084666;28;20059;-44
2022/04/10 07:02:52;;;;;;;5.75;2.67;;;8.80;49.40;;;;;;5083498;28;20063;-43
2022/04/10 07:05:21;;;;;;;7.55;2.83;;;8.80;49.40;;;;;;5084027;28;20059;-43
2022/04/10 07:07:49;;;;;;;5.57;2.70;;;8.80;49.20;;;;;;5084745;28;20589;-45
2022/04/10 07:10:16;;;;;;;9.80;3.40;;;8.90;49.20;;;;;;5080642;28;20521;-43
2022/04/10 07:12:44;;;;;;;9.52;3.15;;;8.90;49.20;;;;;;5082948;28;20060;-44
2022/04/10 07:15:11;;;;;;;6.15;3.20;;;8.90;49.20;;;;;;5085195;28;20067;-43
2022/04/10 07:17:39;;;;;;;9.13;3.08;;;8.90;49.20;;;;;;5083012;28;20052;-43
2022/04/10 07:20:08;;;;;;;6.95;2.83;;;8.90;49.20;;;;;;5083322;28;20506;-43
2022/04/10 07:25:22;;;;;;;8.95;3.00;;;9.00;49.10;;;;;;5083614;28;20055;-43
2022/04/10 07:27:50;;;;;;;9.68;2.70;;;9.00;49.10;;;;;;5084178;28;20377;-44
2022/04/10 07:30:18;;;;;;;12.13;3.50;;;9.00;49.20;;;;;;5082790;28;20055;-44
2022/04/10 07:32:52;;;;;;;7.95;2.90;;;9.00;49.10;;;;;;5082414;28;20067;-43
2022/04/10 07:35:20;;;;;;;;;;;9.00;49.10;;;;;;5082642;28;20098;-44
2022/04/10 07:37:48;;;;;;;12.70;3.47;;;9.10;49.30;;;;;;5083760;28;19931;-43
2022/04/10 07:40:17;;;;;;;8.68;3.20;;;9.10;49.00;;;;;;5081428;28;20052;-43
2022/04/10 07:42:45;;;;;;;7.90;3.38;;;9.10;49.10;;;;;;5081791;28;20060;-43
2022/04/10 07:47:25;;;;;;;6.50;3.10;;;9.20;49.40;;;;;;5083001;28;20043;-46
2022/04/10 07:48:01;;;;;;;14.98;3.58;;;9.20;49.30;;;;;;5082785;28;20056;-43
2022/04/10 07:50:30;;;;;;;13.45;3.15;;;9.20;49.00;;;;;;5080984;28;20056;-44
2022/04/10 07:52:58;;;;;;;8.88;3.22;;;9.20;49.20;;;;;;5081878;28;20056;-44
2022/04/10 07:55:27;;;;;;;8.13;3.25;;;9.20;49.30;;;;;;5083507;28;20055;-44
2022/04/10 07:57:55;;;;;;;9.77;3.25;;;9.20;49.10;;;;;;5083905;28;20067;-43
2022/04/10 08:00:23;;;;;;;10.85;3.70;;;9.30;49.20;;;;;;5082589;28;20495;-44
2022/04/10 08:02:51;;;;;;;11.13;4.00;;;9.30;48.90;;;;;;5080850;28;20414;-44
2022/04/10 08:05:19;;;;;;;11.98;3.50;;;9.30;49.20;;;;;;5080830;28;20059;-44
2022/04/10 08:07:47;;;;;;;6.75;3.45;;;9.40;49.60;;;;;;5083061;28;20067;-42
2022/04/10 08:10:16;;;;;;;11.85;3.67;;;9.50;49.40;;;;;;5081651;28;20055;-45
2022/04/10 08:12:45;;;;;;;7.55;3.33;;;9.60;49.20;;;;;;5078194;28;20056;-44
2022/04/10 08:15:13;;;;;;;9.98;3.70;;;9.70;49.30;;;;;;5084208;28;20052;-45
2022/04/10 08:17:41;;;;;;;10.70;3.55;;;9.70;48.80;;;;;;5081402;28;20381;-43
2022/04/10 08:20:10;;;;;;;10.93;4.10;;;9.80;49.00;;;;;;5081343;28;20047;-43
2022/04/10 08:22:39;;;;;;;11.00;3.83;;;9.80;48.50;;;;;;5083540;28;20063;-43
2022/04/10 08:25:08;;;;;;;17.67;4.22;;;9.80;48.40;;;;;;5081757;28;20416;-44
2022/04/10 08:27:37;;;;;;;9.52;4.10;;;9.80;48.50;;;;;;5082731;28;20056;-43
2022/04/10 08:30:08;;;;;;;9.98;3.95;;;9.90;48.50;;;;;;5082593;28;20058;-43
2022/04/10 08:32:39;;;;;;;12.32;4.07;;;9.90;48.50;;;;;;5081535;28;20060;-43
2022/04/10 08:35:08;;;;;;;9.57;4.00;;;10.00;48.60;;;;;;5080740;28;20060;-44
2022/04/10 08:37:35;;;;;;;13.80;4.25;;;10.00;48.50;;;;;;5079340;28;20055;-43
2022/04/10 08:40:04;;;;;;;11.05;3.15;;;10.00;48.40;;;;;;5079687;28;20052;-42
2022/04/10 08:42:32;;;;;;;8.48;3.83;;;10.10;48.30;;;;;;5081175;28;20056;-43
2022/04/10 08:45:02;;;;;;;11.48;4.07;;;10.10;48.10;;;;;;5081998;28;20532;-43
2022/04/10 08:47:31;;;;;;;9.68;3.30;;;10.20;48.10;;;;;;5081333;28;20521;-43
2022/04/10 08:50:02;;;;;;;12.07;3.72;;;10.30;48.10;;;;;;5080368;28;20059;-44
2022/04/10 08:52:30;;;;;;;12.00;4.15;;;10.30;47.70;;;;;;5076594;28;20065;-44
2022/04/10 08:54:57;;;;;;;11.43;4.40;;;10.30;48.00;;;;;;5081465;28;20051;-43
2022/04/10 08:57:25;;;;;;;9.20;3.78;;;10.40;47.30;;;;;;5078277;28;20504;-43
2022/04/10 08:59:58;;;;;;;7.72;3.67;;;10.40;47.20;;;;;;5076025;28;20143;-43
2022/04/10 09:02:27;;;;;;;10.48;3.95;;;10.40;47.20;;;;;;5078126;28;20052;-44
2022/04/10 09:04:54;;;;;;;14.43;3.45;;;10.50;47.30;;;;;;5077028;28;20056;-44
2022/04/10 09:07:22;;;;;;;9.15;3.45;;;10.50;46.60;;;;;;5081115;28;20055;-43
2022/04/10 09:09:55;;;;;;;9.52;3.05;;;10.60;46.80;;;;;;5078658;28;20051;-43
2022/04/10 09:12:23;;;;;;;8.13;3.30;;;10.60;46.10;;;;;;5078090;28;20059;-44
2022/04/10 09:14:51;;;;;;;7.45;2.90;;;10.70;46.10;;;;;;5078589;28;20065;-44
2022/04/10 09:17:22;;;;;;;8.18;3.28;;;10.70;46.00;;;;;;5081654;28;20056;-44
2022/04/10 09:19:53;;;;;;;11.60;3.53;;;10.80;45.80;;;;;;5080296;28;20056;-42
2022/04/10 09:22:28;;;;;;;7.38;2.78;;;10.80;46.00;;;;;;5080967;28;20062;-43
2022/04/10 09:25:03;;;;;;;10.23;3.35;;;10.90;45.80;;;;;;5080505;28;20081;-44
2022/04/10 09:27:31;;;;;;;7.97;3.10;;;11.00;45.60;;;;;;5076168;28;20063;-47
2022/04/10 09:30:00;;;;;;;8.25;3.35;;;11.10;45.30;;;;;;5080820;28;20056;-44
2022/04/10 09:32:44;;;;;;;6.03;2.50;;;11.10;44.10;;;;;;5080374;28;20063;-44
2022/04/10 09:35:14;;;;;;;;;;;11.10;44.30;;;;;;5080877;28;20056;-45
2022/04/10 09:37:46;;;;;;;7.40;2.28;;;11.10;44.80;;;;;;5080523;28;19928;-44
2022/04/10 09:40:31;;;;;;;5.25;2.13;;;11.10;44.70;;;;;;5067156;28;20056;-45
2022/04/10 09:43:04;;;;;;;11.48;2.72;;;11.10;44.80;;;;;;5061070;28;20423;-45
2022/04/10 09:45:35;;;;;;;7.40;2.40;;;11.00;44.90;;;;;;5060611;28;20523;-45
2022/04/10 09:48:20;;;;;;;10.82;2.92;;;11.00;45.10;;;;;;5061418;28;20048;-44
2022/04/10 09:50:51;;;;;;;9.45;3.25;;;11.00;45.20;;;;;;5060373;28;20056;-45
2022/04/10 09:53:18;;;;;;;8.73;2.90;;;10.90;45.10;;;;;;5060196;28;20048;-43
2022/04/10 09:55:53;;;;;;;7.07;3.15;;;10.90;45.30;;;;;;5059735;28;20757;-43
2022/04/10 09:58:22;;;;;;;10.48;3.17;;;10.90;45.10;;;;;;5059647;28;20063;-45
2022/04/10 10:00:53;;;;;;;9.68;3.10;;;10.90;45.00;;;;;;5060657;28;20501;-44
2022/04/10 10:03:22;;;;;;;9.38;3.72;;;10.90;44.80;;;;;;5061335;28;20059;-48
2022/04/10 10:05:52;;;;;;;11.80;3.15;;;10.90;44.70;;;;;;5060134;28;20056;-43
2022/04/10 10:08:21;;;;;;;14.13;3.72;;;11.00;45.30;;;;;;5060881;28;20051;-44
2022/04/10 10:10:49;;;;;;;7.95;3.28;;;11.00;44.30;;;;;;5061175;28;20061;-44
2022/04/10 10:13:17;;;;;;;9.40;2.80;;;11.00;44.60;;;;;;5056624;28;20412;-44
2022/04/10 10:15:45;;;;;;;11.25;2.78;;;11.10;44.20;;;;;;5060055;28;20048;-44
2022/04/10 10:18:16;;;;;;;9.88;2.80;;;11.00;43.80;;;;;;5060666;28;20067;-45
2022/04/10 10:20:43;;;;;;;7.95;2.97;;;11.10;43.90;;;;;;5060149;28;20056;-44
2022/04/10 10:23:14;;;;;;;9.48;2.90;;;11.10;44.20;;;;;;5059501;28;20083;-43
2022/04/10 10:25:46;;;;;;;8.32;2.80;;;11.20;44.50;;;;;;5057768;28;20087;-44
2022/04/10 10:28:49;;;;;;;6.65;2.83;;;11.20;44.40;;;;;;5060836;28;20068;-44
2022/04/10 10:31:44;;;;;;;6.13;2.30;;;11.40;43.40;;;;;;5063024;28;20053;-43
2022/04/10 10:34:12;;;;;;;6.03;2.38;;;11.40;43.40;;;;;;5064584;28;20048;-45
2022/04/10 10:36:40;;;;;;;8.13;2.60;;;11.50;42.70;;;;;;5061844;28;20048;-45
2022/04/10 10:39:09;;;;;;;9.27;2.50;;;11.60;43.00;;;;;;5059566;28;20557;-44
2022/04/10 10:41:38;;;;;;;5.40;2.00;;;11.60;42.90;;;;;;5080832;28;20060;-44
2022/04/10 10:44:42;;;;;;;7.53;2.10;;;11.70;43.10;;;;;;5084637;28;20052;-44
2022/04/10 10:47:25;;;;;;;6.15;2.00;;;11.80;43.30;;;;;;5084738;28;20055;-45
2022/04/10 10:49:54;;;;;;;9.75;2.47;;;11.80;42.50;;;;;;5081302;28;20059;-43
2022/04/10 10:52:23;;;;;;;8.05;2.15;;;11.80;42.10;;;;;;5083255;28;20056;-43
2022/04/10 10:54:56;;;;;;;12.55;2.47;;;11.80;42.10;;;;;;5083715;28;20063;-44
2022/04/10 10:57:26;;;;;;;5.57;1.80;;;11.80;41.50;;;;;;5081751;28;20059;-44
2022/04/10 11:00:04;;;;;;;6.70;1.80;;;11.80;41.70;;;;;;5081719;28;20063;-44
2022/04/10 11:02:35;;;;;;;8.05;2.00;;;11.80;42.00;;;;;;5082029;28;20460;-44
2022/04/10 11:05:07;;;;;;;7.88;2.15;;;11.80;42.60;;;;;;5082598;28;20606;-43
2022/04/10 11:07:39;;;;;;;7.47;2.00;;;11.90;42.10;;;;;;5081096;28;20048;-43
2022/04/10 11:10:11;;;;;;;4.65;1.77;;;11.90;41.50;;;;;;5081875;28;20048;-44
2022/04/10 11:12:49;;;;;;;8.40;2.30;;;11.90;41.40;;;;;;5082440;28;21043;-43
2022/04/10 11:15:19;;;;;;;3.80;1.73;;;11.90;41.10;;;;;;5082630;28;20055;-44
2022/04/10 11:17:47;;;;;;;5.88;1.70;;;12.00;41.00;;;;;;5083896;28;20044;-44
2022/04/10 11:20:16;;;;;;;6.20;1.90;;;12.10;40.20;;;;;;5083603;28;20059;-43
2022/04/10 11:22:48;;;;;;;3.58;1.55;;;12.00;40.00;;;;;;5082687;28;20052;-47
2022/04/10 11:25:20;;;;;;;5.53;2.00;;;12.00;40.40;;;;;;5076279;28;20052;-44
2022/04/10 11:27:54;;;;;;;9.05;2.33;;;11.90;40.10;;;;;;5081481;28;20044;-44
2022/04/10 11:30:24;;;;;;;6.77;2.20;;;11.90;40.50;;;;;;5081467;28;20048;-44
2022/04/10 11:32:54;;;;;;;7.18;2.13;;;11.90;40.90;;;;;;5082870;28;20052;-44
2022/04/10 11:35:24;;;;;;;5.13;1.50;;;11.80;40.40;;;;;;5083030;28;20416;-44
2022/04/10 11:37:55;;;;;;;4.15;1.63;;;11.80;41.10;;;;;;5082901;28;20737;-44
2022/04/10 11:40:26;;;;;;;7.13;1.85;;;11.80;41.00;;;;;;5067037;28;20083;-44
2022/04/10 11:42:55;;;;;;;6.75;1.80;;;11.80;40.30;;;;;;5059767;28;20052;-43
2022/04/10 11:45:24;;;;;;;6.47;1.90;;;11.80;40.20;;;;;;5063014;28;20052;-44
2022/04/10 11:47:52;;;;;;;6.45;2.00;;;11.70;40.60;;;;;;5064419;28;20071;-44
2022/04/10 11:50:20;;;;;;;5.45;1.55;;;11.80;40.70;;;;;;5061779;28;20050;-44
2022/04/10 11:52:59;;;;;;;5.55;1.65;;;11.80;40.40;;;;;;5060808;28;20079;-44
2022/04/10 11:55:35;;;;;;;8.18;2.17;;;11.90;40.10;;;;;;5060907;28;20057;-44
2022/04/10 11:58:13;;;;;;;8.68;2.17;;;11.90;40.00;;;;;;5060707;28;20049;-44
2022/04/10 12:00:45;;;;;;;8.13;2.15;;;11.90;40.10;;;;;;5059476;28;20059;-44
2022/04/10 12:03:13;;;;;;;6.88;1.95;;;11.90;39.70;;;;;;5060894;28;20048;-44
2022/04/10 12:05:41;;;;;;;4.95;1.90;;;11.90;39.80;;;;;;5062973;28;20079;-45
2022/04/10 12:08:09;;;;;;;9.02;2.65;;;11.90;40.70;;;;;;5062424;28;20057;-44
2022/04/10 12:10:38;;;;;;;5.55;1.60;;;11.90;40.40;;;;;;5061238;28;20057;-45
2022/04/10 12:13:07;;;;;;;6.55;2.30;;;11.90;40.30;;;;;;5057998;28;20040;-44
2022/04/10 12:15:35;;;;;;;7.15;1.83;;;11.90;40.40;;;;;;5060501;28;20045;-44
2022/04/10 12:18:08;;;;;;;6.40;1.80;;;11.80;39.90;;;;;;5061209;28;20049;-44
2022/04/10 12:20:36;;;;;;;4.07;1.75;;;11.80;40.10;;;;;;5062121;28;20404;-45
2022/04/10 12:23:19;;;;;;;5.05;1.83;;;11.70;39.90;;;;;;5062973;28;20523;-44
2022/04/10 12:25:49;;;;;;;9.27;2.15;;;11.60;39.80;;;;;;5061881;28;20607;-44
2022/04/10 12:28:18;;;;;;;4.70;1.83;;;11.50;39.70;;;;;;5060171;28;20049;-44
2022/04/10 12:30:46;;;;;;;4.38;1.73;;;11.50;40.40;;;;;;5060274;28;20056;-44
2022/04/10 12:33:14;;;;;;;4.28;1.90;;;11.40;40.20;;;;;;5061739;28;20056;-44
2022/04/10 12:35:43;;;;;;;7.22;2.25;;;11.30;40.90;;;;;;5060523;28;20056;-44
2022/04/10 12:38:12;;;;;;;7.78;2.08;;;11.30;41.10;;;;;;5059635;28;20052;-44
2022/04/10 12:40:41;;;;;;;6.20;2.30;;;11.30;41.50;;;;;;5058340;28;20072;-44
2022/04/10 12:43:12;;;;;;;8.60;2.40;;;11.30;41.30;;;;;;5056655;28;20400;-44
2022/04/10 12:45:41;;;;;;;5.78;2.25;;;11.30;41.20;;;;;;5061808;28;20053;-44
2022/04/10 12:48:21;;;;;;;5.22;1.85;;;11.40;40.80;;;;;;5059788;28;20411;-44
2022/04/10 12:51:05;;;;;;;5.45;1.67;;;11.40;41.00;;;;;;5061055;28;20063;-43
2022/04/10 12:53:33;;;;;;;5.20;2.05;;;11.50;40.40;;;;;;5055241;28;20055;-44
2022/04/10 12:56:00;;;;;;;6.82;2.05;;;11.60;41.00;;;;;;5059731;28;20075;-43
2022/04/10 12:58:43;;;;;;;6.88;2.25;;;11.70;40.60;;;;;;5056638;28;20131;-44
2022/04/10 13:01:25;;;;;;;7.05;2.30;;;11.80;40.00;;;;;;5053302;28;20063;-44
2022/04/10 13:03:53;;;;;;;5.63;2.00;;;11.90;40.50;;;;;;5054614;28;20412;-43
2022/04/10 13:06:25;;;;;;;8.63;2.22;;;11.90;40.70;;;;;;5060278;28;20060;-45
2022/04/10 13:08:53;;;;;;;7.97;2.47;;;12.00;40.70;;;;;;5057446;28;20074;-45
2022/04/10 13:11:23;;;;;;;8.43;2.15;;;12.00;40.40;;;;;;5060369;28;20044;-43